Terminal Aerodrome Forecast
Issued by NWS Bismarck, ND

Home | Current Version | Previous Version | Graphics & Text | Print | Product List | Glossary On
Versions: 1 2 3 4 5 6 7 8 9 10 11 12
000
FTUS43 KBIS 270528
TAFBIS
TAF
KBIS 270528Z 2706/2806 18007KT P6SM SCT035 SCT100
      TEMPO 2707/2709 BKN035 BKN100
     FM270900 15004KT P6SM VCTS SCT025 SCT035 BKN080CB
      TEMPO 2710/2713 SCT025 BKN035 OVC050CB
     FM271400 17004KT P6SM SCT035 SCT050
     FM272000 22012KT P6SM SCT060
     FM280300 13005KT P6SM SCT250=

USA.gov is the U.S. government's official web portal to all federal, state and local government web resources and services.